Time;durP1;ratioP1;P1;durP2;ratioP2;P2;SDS_P1;SDS_P2;PMS_P1;PMS_P2;Temp;Humidity;BMP_temperature;BMP_pressure;BME280_temperature;BME280_humidity;BME280_pressure;Samples;Min_cycle;Max_cycle;Signal;HPM_P1;HPM_P2
2022/01/15 00:01:46;;;;;;;61.67;35.65;;;5.80;99.90;;;;;;5075849;28;20327;-65
2022/01/15 00:04:12;;;;;;;64.57;35.55;;;5.70;99.90;;;;;;5076401;28;20039;-65
2022/01/15 00:06:38;;;;;;;64.63;36.65;;;5.70;99.90;;;;;;5077014;28;20044;-65
2022/01/15 00:09:05;;;;;;;64.70;36.85;;;5.70;99.90;;;;;;5076342;28;20052;-65
2022/01/15 00:11:31;;;;;;;70.18;38.53;;;5.70;99.90;;;;;;5076366;28;20025;-64
2022/01/15 00:14:11;;;;;;;70.88;37.60;;;5.70;99.90;;;;;;5075647;28;20040;-65
2022/01/15 00:16:48;;;;;;;73.30;39.78;;;5.70;99.90;;;;;;5077530;28;20032;-65
2022/01/15 00:19:17;;;;;;;71.45;38.42;;;5.80;99.90;;;;;;5079363;28;20033;-65
2022/01/15 00:21:43;;;;;;;73.53;38.75;;;5.70;99.90;;;;;;5080471;28;20381;-65
2022/01/15 00:24:09;;;;;;;70.78;38.03;;;5.60;99.90;;;;;;5080021;28;20056;-65
2022/01/15 00:26:35;;;;;;;71.47;37.83;;;5.60;99.90;;;;;;5079340;28;20056;-65
2022/01/15 00:29:01;;;;;;;76.10;40.40;;;5.60;99.90;;;;;;5079104;28;20040;-64
2022/01/15 00:31:27;;;;;;;83.60;40.97;;;5.60;99.90;;;;;;5079942;28;20319;-64
2022/01/15 00:33:53;;;;;;;83.35;42.08;;;5.80;99.90;;;;;;5079645;28;20139;-64
2022/01/15 00:36:19;;;;;;;83.05;41.25;;;5.80;99.90;;;;;;5079848;28;20354;-65
2022/01/15 00:38:45;;;;;;;79.40;39.80;;;5.80;99.90;;;;;;5079016;28;20024;-64
2022/01/15 00:41:11;;;;;;;78.70;40.40;;;5.70;99.90;;;;;;5079776;28;20033;-64
2022/01/15 00:43:38;;;;;;;84.82;41.53;;;5.80;99.90;;;;;;5079661;28;20036;-63
2022/01/15 00:46:04;;;;;;;85.38;41.60;;;5.80;99.90;;;;;;5078884;28;20033;-63
2022/01/15 00:48:30;;;;;;;88.35;42.58;;;5.90;99.90;;;;;;5079837;28;20033;-64
2022/01/15 00:50:56;;;;;;;85.20;41.45;;;5.90;99.90;;;;;;5079784;28;20016;-64
2022/01/15 00:53:22;;;;;;;82.90;40.80;;;5.90;99.90;;;;;;5078946;28;20028;-63
2022/01/15 00:55:47;;;;;;;80.72;41.67;;;5.80;99.90;;;;;;5079538;28;20105;-64
2022/01/15 00:58:13;;;;;;;81.35;40.13;;;5.60;99.90;;;;;;5078698;28;20124;-64
2022/01/15 01:00:39;;;;;;;83.75;41.67;;;5.50;99.90;;;;;;5080120;28;20024;-63
2022/01/15 01:03:05;;;;;;;85.93;41.72;;;5.40;99.90;;;;;;5079454;28;20273;-65
2022/01/15 01:05:31;;;;;;;79.22;39.67;;;5.50;99.90;;;;;;5078791;28;20055;-64
2022/01/15 01:07:57;;;;;;;89.65;41.47;;;5.50;99.90;;;;;;5079619;28;20068;-65
2022/01/15 01:23:29;;;;;;;94.53;42.17;;;5.40;99.90;;;;;;5079130;28;20025;-64
2022/01/15 01:26:06;;;;;;;95.20;41.50;;;5.40;99.90;;;;;;5079034;28;20040;-64
2022/01/15 01:28:40;;;;;;;94.85;43.15;;;5.40;99.90;;;;;;5078870;28;20029;-64
2022/01/15 01:31:16;;;;;;;97.18;43.97;;;5.30;99.90;;;;;;5079426;28;20071;-64
2022/01/15 01:33:46;;;;;;;99.30;44.50;;;5.40;99.90;;;;;;5078598;28;20158;-66
2022/01/15 01:36:23;;;;;;;94.07;43.70;;;5.40;99.90;;;;;;5061462;28;20304;-63
2022/01/15 01:41:19;;;;;;;93.78;43.55;;;5.50;99.90;;;;;;5078751;28;20032;-63
2022/01/15 01:43:56;;;;;;;94.95;42.42;;;5.30;99.90;;;;;;5079002;28;20020;-63
2022/01/15 01:48:49;;;;;;;85.07;41.35;;;5.10;99.90;;;;;;5078659;28;20456;-64
2022/01/15 01:51:37;;;;;;;82.95;41.28;;;5.10;99.90;;;;;;5077799;28;20323;-64
2022/01/15 01:54:05;;;;;;;83.40;39.78;;;5.20;99.90;;;;;;5078599;28;20037;-65
2022/01/15 01:56:31;;;;;;;77.22;38.40;;;5.10;99.90;;;;;;5078529;28;20056;-64
2022/01/15 01:58:58;;;;;;;81.85;41.00;;;4.90;99.90;;;;;;5078390;28;20047;-65
2022/01/15 02:01:25;;;;;;;81.50;39.60;;;4.80;99.90;;;;;;5078421;28;20035;-64
2022/01/15 02:03:51;;;;;;;76.85;38.13;;;4.80;99.90;;;;;;5078338;28;20036;-63
2022/01/15 02:06:18;;;;;;;75.45;38.75;;;5.00;99.90;;;;;;5078533;28;20100;-64
2022/01/15 02:08:44;;;;;;;80.40;37.58;;;5.00;99.90;;;;;;5078231;28;20117;-65
2022/01/15 02:11:10;;;;;;;70.88;35.83;;;5.10;99.90;;;;;;5078761;28;20110;-65
2022/01/15 02:13:42;;;;;;;69.45;35.50;;;5.10;99.90;;;;;;5078097;28;20028;-64
2022/01/15 02:16:09;;;;;;;68.95;35.63;;;4.90;99.90;;;;;;5077397;28;20064;-64
2022/01/15 02:18:35;;;;;;;74.13;37.13;;;4.90;99.90;;;;;;5078221;28;20029;-64
2022/01/15 02:23:41;;;;;;;77.40;37.83;;;4.80;99.90;;;;;;5078250;28;20299;-64
2022/01/15 02:26:10;;;;;;;71.10;38.00;;;4.80;99.90;;;;;;5078009;28;20045;-64
2022/01/15 02:28:39;;;;;;;72.07;37.53;;;4.90;99.90;;;;;;5077776;28;20277;-64
2022/01/15 02:31:26;;;;;;;65.50;35.30;;;4.90;99.90;;;;;;5077893;28;20327;-64
2022/01/15 02:33:55;;;;;;;71.05;34.80;;;4.90;99.90;;;;;;5077502;28;20058;-64
2022/01/15 02:36:27;;;;;;;67.75;34.63;;;4.90;99.90;;;;;;5077654;28;20036;-64
2022/01/15 02:38:53;;;;;;;64.22;33.88;;;4.90;99.90;;;;;;5076993;28;20043;-64
2022/01/15 02:41:31;;;;;;;66.70;33.92;;;4.90;99.90;;;;;;5060288;28;20395;-64
2022/01/15 02:43:58;;;;;;;66.85;34.88;;;4.90;99.90;;;;;;5078088;28;20036;-64
2022/01/15 02:49:01;;;;;;;73.97;36.70;;;5.00;99.90;;;;;;5076639;28;20315;-65
2022/01/15 02:51:37;;;;;;;72.93;37.13;;;5.10;99.90;;;;;;5076699;28;20112;-65
2022/01/15 02:54:04;;;;;;;74.40;36.45;;;5.10;99.90;;;;;;5077308;28;20307;-65
2022/01/15 02:56:38;;;;;;;75.10;37.58;;;5.20;99.90;;;;;;5077350;28;20025;-64
2022/01/15 02:59:06;;;;;;;70.72;35.90;;;5.20;99.90;;;;;;5077255;28;20037;-64
2022/01/15 03:01:33;;;;;;;77.43;37.95;;;5.30;99.90;;;;;;5077795;28;20033;-64
2022/01/15 03:03:59;;;;;;;72.45;36.50;;;5.40;99.90;;;;;;5077286;28;20032;-64
2022/01/15 03:06:25;;;;;;;72.88;38.75;;;5.20;99.90;;;;;;5077212;28;20438;-64
2022/01/15 03:08:53;;;;;;;78.15;38.60;;;5.30;99.90;;;;;;5077107;28;20070;-65
2022/01/15 03:11:19;;;;;;;76.32;38.03;;;5.30;99.90;;;;;;5077056;28;20261;-64
2022/01/15 03:13:46;;;;;;;72.15;36.92;;;5.30;99.90;;;;;;5076363;28;20392;-64
2022/01/15 03:16:17;;;;;;;72.13;37.88;;;5.30;99.90;;;;;;5076402;28;20295;-64
2022/01/15 03:18:44;;;;;;;70.13;35.97;;;5.20;99.90;;;;;;5076985;28;20300;-64
2022/01/15 03:21:10;;;;;;;72.00;37.25;;;5.10;99.90;;;;;;5077002;28;20044;-65
2022/01/15 03:23:37;;;;;;;69.85;36.75;;;5.10;99.90;;;;;;5077111;28;20025;-64
2022/01/15 03:26:05;;;;;;;69.00;36.58;;;5.20;99.90;;;;;;5076944;28;20025;-64
2022/01/15 03:28:31;;;;;;;68.53;35.45;;;5.20;99.90;;;;;;5076137;28;20308;-64
2022/01/15 03:30:57;;;;;;;70.35;37.58;;;5.20;99.90;;;;;;5076866;28;20161;-65
2022/01/15 03:33:23;;;;;;;71.55;36.13;;;5.20;99.90;;;;;;5076665;28;20181;-64
2022/01/15 03:35:49;;;;;;;73.18;37.47;;;5.20;99.90;;;;;;5076784;28;20053;-64
2022/01/15 03:38:15;;;;;;;73.30;37.20;;;5.10;99.90;;;;;;5059474;28;20397;-64
2022/01/15 03:40:40;;;;;;;71.32;38.40;;;5.10;99.90;;;;;;5076169;28;20392;-65
2022/01/15 03:43:06;;;;;;;71.60;37.42;;;5.10;99.90;;;;;;5076012;28;20032;-64
2022/01/15 03:45:33;;;;;;;73.15;38.60;;;5.20;99.90;;;;;;5076093;28;20029;-65
2022/01/15 03:47:59;;;;;;;75.57;38.58;;;5.20;99.90;;;;;;5076765;28;20039;-64
2022/01/15 03:50:26;;;;;;;71.05;37.25;;;5.00;99.90;;;;;;5077577;28;20040;-64
2022/01/15 03:52:53;;;;;;;72.78;38.30;;;5.00;99.90;;;;;;5079996;28;20376;-64
2022/01/15 03:55:20;;;;;;;71.70;37.33;;;5.00;99.90;;;;;;5080714;28;20296;-65
2022/01/15 03:57:47;;;;;;;69.93;36.50;;;4.90;99.90;;;;;;5079976;28;20047;-64
2022/01/15 04:00:19;;;;;;;70.05;37.08;;;4.90;99.90;;;;;;5080206;28;20451;-64
2022/01/15 04:02:48;;;;;;;70.78;35.80;;;4.80;99.90;;;;;;5079908;28;20311;-64
2022/01/15 04:05:14;;;;;;;72.57;37.80;;;4.80;99.90;;;;;;5080607;28;20033;-65
2022/01/15 04:07:39;;;;;;;74.03;38.67;;;4.90;99.90;;;;;;5080589;28;20033;-65
2022/01/15 04:10:08;;;;;;;73.97;38.55;;;4.90;99.90;;;;;;5080488;28;20040;-65
2022/01/15 04:12:34;;;;;;;74.20;37.45;;;5.00;99.90;;;;;;5079805;28;20098;-65
2022/01/15 04:15:00;;;;;;;82.30;39.88;;;4.80;99.90;;;;;;5080382;28;20044;-65
2022/01/15 04:17:26;;;;;;;81.40;38.97;;;4.90;99.90;;;;;;5079681;28;20273;-65
2022/01/15 04:19:52;;;;;;;86.00;39.72;;;5.10;99.90;;;;;;5080334;28;20029;-65
2022/01/15 04:22:18;;;;;;;87.80;41.58;;;5.00;99.90;;;;;;5080289;28;20024;-65
2022/01/15 04:24:44;;;;;;;81.05;39.30;;;5.00;99.90;;;;;;5080197;28;20044;-66
2022/01/15 04:27:10;;;;;;;85.38;40.60;;;4.90;99.90;;;;;;5080184;28;20051;-65
2022/01/15 04:29:36;;;;;;;83.72;38.95;;;5.00;99.90;;;;;;5080204;28;20041;-65
2022/01/15 04:32:03;;;;;;;84.55;39.10;;;5.10;99.90;;;;;;5080136;28;20085;-65
2022/01/15 04:34:30;;;;;;;90.18;41.08;;;5.00;99.90;;;;;;5079048;28;20048;-65
2022/01/15 04:37:04;;;;;;;89.57;40.30;;;5.00;99.90;;;;;;5079346;28;20024;-64
2022/01/15 04:39:30;;;;;;;91.68;41.85;;;4.90;99.90;;;;;;5064010;28;20060;-65
2022/01/15 04:41:56;;;;;;;87.18;41.38;;;5.00;99.90;;;;;;5079196;28;20324;-65
2022/01/15 04:44:22;;;;;;;90.60;41.55;;;4.90;99.90;;;;;;5079067;28;20119;-63
2022/01/15 04:46:47;;;;;;;86.10;41.35;;;5.00;99.90;;;;;;5079865;28;20094;-63
2022/01/15 04:49:13;;;;;;;88.10;41.67;;;5.00;99.90;;;;;;5079042;28;20049;-65
2022/01/15 04:51:39;;;;;;;84.40;38.85;;;5.10;99.90;;;;;;5079802;28;20041;-64
2022/01/15 04:54:05;;;;;;;90.05;41.83;;;5.10;99.90;;;;;;5079598;28;20036;-64
2022/01/15 04:56:31;;;;;;;83.95;40.53;;;5.00;99.90;;;;;;5062188;28;20048;-64
2022/01/15 04:58:57;;;;;;;85.40;39.60;;;5.00;99.90;;;;;;5079606;28;20090;-64
2022/01/15 05:01:23;;;;;;;82.45;38.67;;;5.10;99.90;;;;;;5078795;28;20032;-64
2022/01/15 05:03:49;;;;;;;77.70;38.92;;;5.10;99.90;;;;;;5078060;28;20431;-65
2022/01/15 05:06:16;;;;;;;73.70;37.25;;;5.10;99.90;;;;;;5079560;28;20039;-65
2022/01/15 05:08:44;;;;;;;69.13;35.03;;;5.00;99.90;;;;;;5079576;28;20324;-64
2022/01/15 05:11:16;;;;;;;72.20;35.67;;;4.90;99.90;;;;;;5078668;28;20116;-65
2022/01/15 05:13:42;;;;;;;70.07;34.60;;;4.70;99.90;;;;;;5078705;28;20351;-65
2022/01/15 05:16:07;;;;;;;67.35;34.92;;;4.60;99.90;;;;;;5078597;28;20040;-66
2022/01/15 05:18:33;;;;;;;73.40;36.88;;;4.60;99.90;;;;;;5078573;28;20097;-65
2022/01/15 05:20:59;;;;;;;67.22;34.63;;;4.70;99.90;;;;;;5079265;28;20024;-65
2022/01/15 05:23:25;;;;;;;68.43;35.38;;;4.80;99.90;;;;;;5079471;28;20024;-65
2022/01/15 05:25:51;;;;;;;65.13;34.22;;;4.80;99.90;;;;;;5079021;28;20043;-65
2022/01/15 05:28:17;;;;;;;67.85;35.45;;;4.80;99.90;;;;;;5079101;28;20032;-64
2022/01/15 05:30:43;;;;;;;65.28;34.85;;;4.90;99.90;;;;;;5078202;28;20093;-64
2022/01/15 05:33:08;;;;;;;72.85;36.67;;;4.90;99.90;;;;;;5078865;28;20048;-64
2022/01/15 05:35:34;;;;;;;71.47;35.15;;;5.10;99.90;;;;;;5061388;28;20047;-65
2022/01/15 05:38:00;;;;;;;65.28;33.83;;;5.20;99.90;;;;;;5061523;28;20052;-64
2022/01/15 05:40:27;;;;;;;65.70;35.40;;;5.10;99.90;;;;;;5078916;28;20029;-65
2022/01/15 05:42:53;;;;;;;66.72;35.25;;;5.00;99.90;;;;;;5078124;28;20036;-65
2022/01/15 05:45:24;;;;;;;72.15;35.60;;;5.00;99.90;;;;;;5078778;28;20295;-65
2022/01/15 05:47:51;;;;;;;65.32;34.60;;;5.00;99.90;;;;;;5062164;28;20033;-65
2022/01/15 05:50:17;;;;;;;64.60;34.92;;;5.10;99.90;;;;;;5078082;28;20028;-65
2022/01/15 05:52:43;;;;;;;67.30;33.97;;;5.00;99.90;;;;;;5078668;28;20037;-65
2022/01/15 05:55:09;;;;;;;68.78;34.40;;;4.90;99.90;;;;;;5077712;28;20063;-65
2022/01/15 05:57:35;;;;;;;65.32;33.75;;;4.80;99.90;;;;;;5061206;28;20021;-65
2022/01/15 06:00:01;;;;;;;65.47;33.85;;;4.90;99.90;;;;;;5077768;28;20075;-64
2022/01/15 06:02:27;;;;;;;61.97;34.30;;;4.80;99.90;;;;;;5077657;28;20028;-66
2022/01/15 06:04:52;;;;;;;65.07;35.40;;;4.70;99.90;;;;;;5077698;28;20040;-66
2022/01/15 06:07:18;;;;;;;70.40;35.53;;;4.70;99.90;;;;;;5078362;28;20086;-64
2022/01/15 06:09:44;;;;;;;71.00;35.33;;;4.50;99.90;;;;;;5078312;28;20089;-66
2022/01/15 06:12:10;;;;;;;72.53;36.17;;;4.70;99.90;;;;;;5077580;28;20020;-65
2022/01/15 06:14:36;;;;;;;76.13;36.22;;;4.80;99.90;;;;;;5077071;28;20024;-65
2022/01/15 06:17:04;;;;;;;73.18;36.55;;;4.70;99.90;;;;;;5078004;28;20058;-65
2022/01/15 06:19:30;;;;;;;70.47;34.58;;;4.60;99.90;;;;;;5077385;28;20033;-64
2022/01/15 06:21:58;;;;;;;70.55;35.58;;;4.50;99.90;;;;;;5077995;28;20037;-65
2022/01/15 06:24:24;;;;;;;80.35;38.60;;;4.60;99.90;;;;;;5078085;28;20300;-65
2022/01/15 06:26:50;;;;;;;71.55;36.05;;;4.50;99.90;;;;;;5077323;28;20138;-64
2022/01/15 06:29:16;;;;;;;80.78;37.72;;;4.50;99.90;;;;;;5077840;28;20384;-65
2022/01/15 06:31:41;;;;;;;73.95;36.08;;;4.60;99.90;;;;;;5077833;28;20066;-65
2022/01/15 06:34:07;;;;;;;77.97;36.28;;;4.50;99.90;;;;;;5076855;28;20052;-65
2022/01/15 06:36:33;;;;;;;78.30;36.83;;;4.60;99.90;;;;;;5076979;28;20029;-66
2022/01/15 06:38:59;;;;;;;81.35;38.45;;;4.60;99.90;;;;;;5077698;28;20068;-64
2022/01/15 06:41:25;;;;;;;83.07;36.78;;;4.60;99.90;;;;;;5077639;28;20127;-65
2022/01/15 06:43:51;;;;;;;86.55;39.17;;;4.50;99.90;;;;;;5077603;28;20024;-66
2022/01/15 06:46:16;;;;;;;84.20;38.72;;;4.40;99.90;;;;;;5077557;28;20025;-64
2022/01/15 06:48:42;;;;;;;83.57;39.10;;;4.30;99.90;;;;;;5077510;28;20115;-64
2022/01/15 06:51:08;;;;;;;82.20;38.35;;;4.30;99.90;;;;;;5077537;28;20029;-64
2022/01/15 06:53:34;;;;;;;89.32;39.00;;;4.40;99.90;;;;;;5077593;28;20177;-64
2022/01/15 06:56:00;;;;;;;91.57;38.58;;;4.50;99.90;;;;;;5077274;28;20427;-64
2022/01/15 06:58:25;;;;;;;90.95;39.45;;;4.60;99.90;;;;;;5077637;28;20337;-64
2022/01/15 07:00:52;;;;;;;86.85;38.08;;;4.70;99.90;;;;;;5077340;28;20052;-65
2022/01/15 07:03:18;;;;;;;89.43;38.60;;;4.70;99.90;;;;;;5077317;28;20308;-66
2022/01/15 07:05:43;;;;;;;103.30;41.60;;;4.80;99.90;;;;;;5077218;28;20036;-65
2022/01/15 07:08:10;;;;;;;93.57;41.13;;;4.70;99.90;;;;;;5077259;28;20036;-63
2022/01/15 07:10:39;;;;;;;91.68;38.53;;;4.80;99.90;;;;;;5076450;28;20032;-65
2022/01/15 07:13:08;;;;;;;85.72;37.47;;;4.70;99.90;;;;;;5076356;28;20040;-65
2022/01/15 07:15:34;;;;;;;85.18;38.10;;;4.70;99.90;;;;;;5076285;28;20325;-65
2022/01/15 07:18:00;;;;;;;89.28;38.45;;;4.70;99.90;;;;;;5077027;28;20082;-65
2022/01/15 07:20:27;;;;;;;90.55;38.58;;;4.70;99.90;;;;;;5077031;28;20020;-64
2022/01/15 07:22:54;;;;;;;81.88;35.92;;;4.70;99.90;;;;;;5076998;28;20093;-65
2022/01/15 07:25:20;;;;;;;87.35;37.05;;;4.70;99.90;;;;;;5076662;28;20400;-64
2022/01/15 07:27:46;;;;;;;89.90;38.05;;;4.60;99.90;;;;;;5076253;28;20024;-64
2022/01/15 07:30:14;;;;;;;87.47;35.88;;;4.60;99.90;;;;;;5076274;28;20312;-64
2022/01/15 07:32:40;;;;;;;91.35;37.45;;;4.50;99.90;;;;;;5076881;28;20028;-64
2022/01/15 07:35:08;;;;;;;92.03;38.65;;;4.50;99.90;;;;;;5076158;28;20048;-64
2022/01/15 07:37:36;;;;;;;90.45;37.08;;;4.50;99.90;;;;;;5077104;28;20325;-65
2022/01/15 07:40:04;;;;;;;93.75;38.58;;;4.50;99.90;;;;;;5076803;28;20338;-65
2022/01/15 07:42:35;;;;;;;90.53;36.80;;;4.40;99.90;;;;;;5076937;28;20024;-64
2022/01/15 07:45:07;;;;;;;92.87;36.90;;;4.40;99.90;;;;;;5076504;28;20070;-65
2022/01/15 07:47:33;;;;;;;91.78;36.72;;;4.50;99.90;;;;;;5077143;28;20043;-64
2022/01/15 07:49:59;;;;;;;98.43;36.67;;;4.50;99.90;;;;;;5076828;28;20044;-65
2022/01/15 07:52:26;;;;;;;97.05;36.78;;;4.50;99.90;;;;;;5077206;28;20038;-64
2022/01/15 07:54:52;;;;;;;94.60;37.92;;;4.60;99.90;;;;;;5076654;28;20032;-64
2022/01/15 07:57:17;;;;;;;95.07;36.75;;;4.70;99.90;;;;;;5076705;28;20082;-64
2022/01/15 07:59:46;;;;;;;92.35;36.05;;;4.70;99.90;;;;;;5059272;28;20403;-64
2022/01/15 08:02:12;;;;;;;92.07;37.13;;;4.70;99.90;;;;;;5059298;28;20074;-65
2022/01/15 08:04:38;;;;;;;89.88;36.97;;;4.70;99.90;;;;;;5059279;28;20040;-64
2022/01/15 08:07:04;;;;;;;92.45;35.75;;;4.80;99.90;;;;;;5077067;28;20028;-65
2022/01/15 08:09:29;;;;;;;83.13;33.28;;;4.80;99.90;;;;;;5076588;28;20036;-64
2022/01/15 08:11:55;;;;;;;86.72;34.58;;;4.70;99.90;;;;;;5076582;28;20032;-65
2022/01/15 08:14:21;;;;;;;77.55;32.45;;;4.80;99.90;;;;;;5075613;28;20040;-65
2022/01/15 08:16:47;;;;;;;83.43;33.47;;;4.70;99.90;;;;;;5075607;28;20025;-65
2022/01/15 08:19:13;;;;;;;76.75;32.88;;;4.60;99.90;;;;;;5075834;28;20055;-65
2022/01/15 08:21:39;;;;;;;81.82;34.15;;;4.60;99.90;;;;;;5075546;28;20346;-65
2022/01/15 08:24:05;;;;;;;82.45;33.38;;;4.70;99.90;;;;;;5076339;28;20033;-65
2022/01/15 08:26:31;;;;;;;79.07;33.15;;;4.60;99.90;;;;;;5075560;28;20352;-65
2022/01/15 08:28:56;;;;;;;87.75;33.97;;;4.60;99.90;;;;;;5075709;28;20067;-64
2022/01/15 08:31:22;;;;;;;83.43;34.03;;;4.60;99.90;;;;;;5076588;28;20108;-64
2022/01/15 08:33:48;;;;;;;89.38;35.60;;;4.50;99.90;;;;;;5076119;28;20071;-64
2022/01/15 08:36:16;;;;;;;93.60;35.05;;;4.50;99.90;;;;;;5076617;28;20277;-64
2022/01/15 08:38:41;;;;;;;90.35;34.95;;;4.50;99.90;;;;;;5079073;28;20431;-64
2022/01/15 08:41:07;;;;;;;91.07;34.67;;;4.60;99.90;;;;;;5079959;28;20060;-66
2022/01/15 08:43:33;;;;;;;87.00;34.55;;;4.60;99.90;;;;;;5079753;28;20338;-65
2022/01/15 08:45:59;;;;;;;90.05;35.55;;;4.70;99.90;;;;;;5079020;28;20029;-63
2022/01/15 08:48:25;;;;;;;87.95;32.88;;;4.80;99.90;;;;;;5079054;28;20032;-66
2022/01/15 08:50:50;;;;;;;90.68;34.40;;;4.80;99.90;;;;;;5079003;28;20053;-65
2022/01/15 08:53:20;;;;;;;94.20;36.70;;;4.90;99.90;;;;;;5078879;28;20032;-66
2022/01/15 08:55:46;;;;;;;90.20;34.17;;;4.80;99.90;;;;;;5079576;28;20396;-66
2022/01/15 08:58:12;;;;;;;90.82;34.15;;;4.70;99.90;;;;;;5079538;28;20047;-65
2022/01/15 09:00:39;;;;;;;92.88;35.45;;;4.80;99.90;;;;;;5079805;28;20249;-64
2022/01/15 09:03:06;;;;;;;92.75;34.65;;;4.90;99.90;;;;;;5079467;28;20020;-64
2022/01/15 09:05:36;;;;;;;95.78;34.85;;;4.90;99.90;;;;;;5078634;28;20327;-64
2022/01/15 09:08:04;;;;;;;88.97;35.13;;;4.80;99.90;;;;;;5079587;28;20033;-65
2022/01/15 09:10:30;;;;;;;98.72;35.92;;;4.90;99.90;;;;;;5079307;28;20331;-65
2022/01/15 09:12:56;;;;;;;92.28;33.70;;;4.90;99.90;;;;;;5078557;28;20028;-64
2022/01/15 09:15:22;;;;;;;96.45;36.28;;;5.00;99.90;;;;;;5079146;28;20337;-64
2022/01/15 09:17:48;;;;;;;91.90;36.63;;;5.00;99.90;;;;;;5079176;28;20414;-65
2022/01/15 09:20:14;;;;;;;87.35;34.28;;;4.80;99.90;;;;;;5079136;28;20119;-64
2022/01/15 09:22:40;;;;;;;89.45;33.97;;;4.80;99.90;;;;;;5078998;28;20090;-65
2022/01/15 09:25:07;;;;;;;83.43;34.50;;;4.70;99.90;;;;;;5079806;28;20036;-64
2022/01/15 09:30:17;;;;;;;86.65;33.90;;;4.50;99.90;;;;;;5078996;28;20066;-64
2022/01/15 09:32:49;;;;;;;89.47;35.75;;;4.70;99.90;;;;;;5078825;28;20024;-65
2022/01/15 09:35:21;;;;;;;62.28;24.48;;;4.70;99.90;;;;;;5078570;28;20048;-64
2022/01/15 09:37:49;;;;;;;90.85;33.25;;;4.70;99.90;;;;;;5078727;28;20044;-64
2022/01/15 09:40:15;;;;;;;79.82;31.40;;;4.90;99.90;;;;;;5078714;28;20396;-63
2022/01/15 09:42:44;;;;;;;87.85;30.65;;;4.30;99.90;;;;;;5078773;28;20100;-65
2022/01/15 09:45:11;;;;;;;80.07;30.25;;;4.20;99.90;;;;;;5078876;28;20404;-63
2022/01/15 09:47:38;;;;;;;80.18;29.42;;;4.20;99.90;;;;;;5079317;28;20073;-63
2022/01/15 09:50:07;;;;;;;77.72;29.25;;;4.00;99.90;;;;;;5078324;28;20405;-63
2022/01/15 09:52:34;;;;;;;79.40;28.77;;;3.90;99.90;;;;;;5077670;28;20024;-63
2022/01/15 09:55:02;;;;;;;76.65;28.80;;;3.90;99.90;;;;;;5078470;28;20032;-63
2022/01/15 09:57:28;;;;;;;79.32;29.17;;;4.20;99.90;;;;;;5077788;28;20036;-66
2022/01/15 09:59:54;;;;;;;71.88;29.17;;;4.00;99.90;;;;;;5079003;28;20368;-62
2022/01/15 10:02:20;;;;;;;75.72;29.23;;;4.20;99.90;;;;;;5078766;28;20295;-63
2022/01/15 10:04:46;;;;;;;76.63;29.45;;;4.30;99.90;;;;;;5077659;28;20044;-64
2022/01/15 10:07:16;;;;;;;78.90;30.70;;;4.50;99.90;;;;;;5078208;28;20039;-63
2022/01/15 10:09:43;;;;;;;82.65;29.67;;;4.60;99.90;;;;;;5077371;28;20028;-63
2022/01/15 10:12:11;;;;;;;79.45;30.65;;;4.80;99.90;;;;;;5078036;28;20046;-64
2022/01/15 10:14:40;;;;;;;83.22;31.38;;;4.90;99.90;;;;;;5077331;28;20032;-64
2022/01/15 10:17:25;;;;;;;80.03;30.08;;;4.10;99.90;;;;;;5077934;28;20020;-63
2022/01/15 10:19:51;;;;;;;85.07;31.75;;;4.00;99.90;;;;;;5078045;28;20025;-64
2022/01/15 10:22:20;;;;;;;77.22;30.80;;;4.00;99.90;;;;;;5077825;28;20068;-63
2022/01/15 10:24:52;;;;;;;77.68;29.27;;;4.10;99.90;;;;;;5078349;28;20036;-64
2022/01/15 10:27:25;;;;;;;65.93;27.20;;;4.30;99.90;;;;;;5077763;28;20132;-64
2022/01/15 10:29:54;;;;;;;72.35;27.83;;;4.50;99.90;;;;;;5077059;28;20039;-64
2022/01/15 10:32:20;;;;;;;71.78;27.67;;;4.60;99.90;;;;;;5077624;28;20029;-62
2022/01/15 10:34:46;;;;;;;67.45;27.85;;;4.90;99.90;;;;;;5077471;28;20048;-63
2022/01/15 10:37:19;;;;;;;69.75;27.45;;;5.00;99.90;;;;;;5076823;28;20032;-63
2022/01/15 10:40:06;;;;;;;69.47;27.58;;;5.20;99.90;;;;;;5077582;28;20125;-64
2022/01/15 10:42:32;;;;;;;69.10;27.08;;;5.30;99.90;;;;;;5077828;28;20031;-63
2022/01/15 10:44:59;;;;;;;74.07;27.52;;;5.50;99.90;;;;;;5076790;28;20446;-63
2022/01/15 10:47:28;;;;;;;71.15;27.50;;;5.60;99.90;;;;;;5076732;28;20036;-64
2022/01/15 10:50:01;;;;;;;66.25;26.88;;;5.30;99.90;;;;;;5077459;28;20036;-64
2022/01/15 10:52:28;;;;;;;73.03;28.45;;;5.30;99.90;;;;;;5077721;28;20113;-64
2022/01/15 10:55:11;;;;;;;73.15;29.05;;;5.10;99.90;;;;;;5076672;28;20036;-64
2022/01/15 10:57:38;;;;;;;70.53;29.02;;;5.10;99.90;;;;;;5076623;28;20103;-64
2022/01/15 11:00:15;;;;;;;71.93;28.38;;;5.10;99.90;;;;;;5076599;28;20050;-64
2022/01/15 11:02:44;;;;;;;79.78;30.15;;;5.20;99.90;;;;;;5076518;28;20031;-64
2022/01/15 11:05:37;;;;;;;74.32;29.33;;;5.30;99.90;;;;;;5076636;28;20442;-64
2022/01/15 11:08:07;;;;;;;;;;;5.30;99.90;;;;;;5077686;28;20103;-64
2022/01/15 11:10:51;;;;;;;71.95;28.40;;;5.30;99.90;;;;;;5077314;28;19908;-64
2022/01/15 11:13:20;;;;;;;79.20;30.02;;;5.50;99.90;;;;;;5076499;28;20033;-63
2022/01/15 11:15:49;;;;;;;74.00;28.75;;;5.80;99.90;;;;;;5077241;28;20047;-63
2022/01/15 11:18:19;;;;;;;68.97;28.83;;;5.70;99.90;;;;;;5076352;28;20025;-63
2022/01/15 11:20:48;;;;;;;73.22;28.60;;;5.80;99.90;;;;;;5076345;28;20028;-63
2022/01/15 11:23:16;;;;;;;63.58;25.63;;;5.70;99.90;;;;;;5076235;28;20028;-64
2022/01/15 11:25:44;;;;;;;65.05;27.10;;;6.00;99.90;;;;;;5076224;28;20341;-63
2022/01/15 11:28:10;;;;;;;62.33;26.73;;;5.80;99.90;;;;;;5076894;28;20343;-63
2022/01/15 11:30:36;;;;;;;60.00;25.80;;;5.70;99.90;;;;;;5076956;28;20068;-63
2022/01/15 11:33:02;;;;;;;61.35;25.05;;;5.20;99.90;;;;;;5076882;28;20273;-62
2022/01/15 11:35:45;;;;;;;61.97;26.15;;;4.90;99.90;;;;;;5076704;28;20495;-63
2022/01/15 11:38:11;;;;;;;;;;;4.70;99.90;;;;;;5077295;28;20035;-63
2022/01/15 11:40:46;;;;;;;60.85;24.58;;;4.80;99.90;;;;;;5077286;28;19917;-63
2022/01/15 11:43:24;;;;;;;61.03;25.73;;;5.00;99.90;;;;;;5077059;28;20345;-63
2022/01/15 11:45:54;;;;;;;57.92;24.60;;;5.20;99.90;;;;;;5076878;28;20108;-63
2022/01/15 11:48:29;;;;;;;64.93;25.98;;;5.30;99.90;;;;;;5076597;28;20024;-64
2022/01/15 11:51:13;;;;;;;64.43;26.70;;;5.60;99.90;;;;;;5076007;28;20086;-62
2022/01/15 11:53:47;;;;;;;62.65;25.33;;;5.80;99.90;;;;;;5076425;28;20075;-63
2022/01/15 11:56:36;;;;;;;57.70;25.20;;;6.20;99.90;;;;;;5059548;28;20043;-63
2022/01/15 11:59:24;;;;;;;61.95;26.10;;;6.80;99.90;;;;;;5075913;28;20024;-63
2022/01/15 12:02:02;;;;;;;60.40;25.73;;;7.10;99.90;;;;;;5076485;28;20045;-63
2022/01/15 12:04:27;;;;;;;63.05;25.60;;;7.30;99.90;;;;;;5075949;28;20032;-63
2022/01/15 12:07:05;;;;;;;66.40;26.88;;;7.40;99.90;;;;;;5076586;28;20032;-63
2022/01/15 12:09:35;;;;;;;59.35;24.67;;;7.70;99.90;;;;;;5076545;28;20082;-63
2022/01/15 12:12:35;;;;;;;56.08;25.33;;;7.80;99.90;;;;;;5078999;28;20028;-63
2022/01/15 12:15:06;;;;;;;60.75;27.02;;;7.80;99.90;;;;;;5080177;28;20037;-64
2022/01/15 12:17:41;;;;;;;59.20;25.48;;;7.90;99.90;;;;;;5063085;28;20043;-63
2022/01/15 12:20:16;;;;;;;58.70;25.42;;;7.70;99.90;;;;;;5080407;28;20066;-63
2022/01/15 12:22:54;;;;;;;53.63;24.15;;;7.50;99.90;;;;;;5080212;28;20442;-63
2022/01/15 12:25:26;;;;;;;59.30;26.00;;;7.60;99.90;;;;;;5080154;28;20060;-64
2022/01/15 12:28:04;;;;;;;49.15;23.20;;;7.70;99.90;;;;;;5080509;28;20295;-62
2022/01/15 12:30:35;;;;;;;53.63;23.00;;;7.50;99.90;;;;;;5079266;28;20028;-63
2022/01/15 12:33:04;;;;;;;47.63;21.83;;;7.10;99.90;;;;;;5080088;28;20101;-63
2022/01/15 12:35:32;;;;;;;47.60;22.25;;;6.50;99.90;;;;;;5079867;28;20483;-64
2022/01/15 12:38:07;;;;;;;49.65;22.98;;;6.20;99.90;;;;;;5080029;28;20035;-63
2022/01/15 12:40:41;;;;;;;50.92;22.40;;;6.20;99.90;;;;;;5079247;28;20024;-63
2022/01/15 12:43:18;;;;;;;47.65;22.35;;;6.30;99.90;;;;;;5079797;28;20039;-63
2022/01/15 12:45:47;;;;;;;47.83;22.80;;;6.30;99.90;;;;;;5080510;28;20127;-64
2022/01/15 12:48:19;;;;;;;49.22;22.13;;;6.50;99.90;;;;;;5062593;28;20064;-64
2022/01/15 12:50:54;;;;;;;48.80;22.33;;;6.30;99.90;;;;;;5080687;28;20032;-64
2022/01/15 12:53:22;;;;;;;52.55;22.70;;;6.00;99.90;;;;;;5079722;28;20052;-65
2022/01/15 12:55:48;;;;;;;48.80;22.05;;;6.00;99.90;;;;;;5078948;28;20047;-64
2022/01/15 12:58:17;;;;;;;49.30;21.58;;;6.10;99.90;;;;;;5079590;28;20046;-62
2022/01/15 13:00:43;;;;;;;45.47;22.10;;;6.40;99.90;;;;;;5078950;28;20039;-63
2022/01/15 13:03:11;;;;;;;46.55;22.25;;;6.60;99.90;;;;;;5078800;28;20058;-63
2022/01/15 13:05:43;;;;;;;50.33;22.02;;;6.90;99.90;;;;;;5079524;28;20024;-63
2022/01/15 13:08:15;;;;;;;46.50;21.83;;;6.80;99.90;;;;;;5078799;28;20064;-64
2022/01/15 13:13:24;;;;;;;48.42;22.90;;;7.10;99.90;;;;;;5079539;28;20025;-64